sensor_id;sensor_type;location;lat;lon;timestamp;pressure;altitude;pressure_sealevel;temperature;humidity
56414;BME280;42318;48.452;19.526;2023-07-13T00:04:35;98132.53;;;23.86;58.48
56414;BME280;42318;48.452;19.526;2023-07-13T00:13:16;98125.94;;;23.87;58.40
56414;BME280;42318;48.452;19.526;2023-07-13T00:18:17;98133.88;;;23.88;58.38
56414;BME280;42318;48.452;19.526;2023-07-13T00:23:18;98124.84;;;23.88;58.18
56414;BME280;42318;48.452;19.526;2023-07-13T00:28:19;98122.91;;;23.88;58.53
56414;BME280;42318;48.452;19.526;2023-07-13T00:33:20;98103.78;;;23.88;58.48
56414;BME280;42318;48.452;19.526;2023-07-13T00:38:22;98087.34;;;23.88;58.17
56414;BME280;42318;48.452;19.526;2023-07-13T00:43:27;98086.53;;;23.88;58.19
56414;BME280;42318;48.452;19.526;2023-07-13T00:48:31;98091.19;;;23.87;58.42
56414;BME280;42318;48.452;19.526;2023-07-13T00:53:34;98086.81;;;23.86;58.59
56414;BME280;42318;48.452;19.526;2023-07-13T00:58:35;98091.75;;;23.84;58.04
56414;BME280;42318;48.452;19.526;2023-07-13T01:03:36;98091.75;;;23.84;58.42
56414;BME280;42318;48.452;19.526;2023-07-13T01:08:38;98067.69;;;23.86;58.31
56414;BME280;42318;48.452;19.526;2023-07-13T01:13:40;98043.88;;;23.87;57.97
56414;BME280;42318;48.452;19.526;2023-07-13T01:18:41;98042.25;;;23.86;58.19
56414;BME280;42318;48.452;19.526;2023-07-13T01:23:42;98041.41;;;23.85;58.39
56414;BME280;42318;48.452;19.526;2023-07-13T01:28:44;98032.09;;;23.86;58.10
56414;BME280;42318;48.452;19.526;2023-07-13T01:33:45;98012.53;;;23.74;58.56
56414;BME280;42318;48.452;19.526;2023-07-13T01:38:46;98037.03;;;23.84;58.33
56414;BME280;42318;48.452;19.526;2023-07-13T01:43:47;98026.09;;;23.84;57.83
56414;BME280;42318;48.452;19.526;2023-07-13T01:48:47;98022.28;;;23.85;58.05
56414;BME280;42318;48.452;19.526;2023-07-13T01:53:48;98026.09;;;23.84;57.91
56414;BME280;42318;48.452;19.526;2023-07-13T01:58:51;98022.28;;;23.85;58.10
56414;BME280;42318;48.452;19.526;2023-07-13T02:03:53;98021.72;;;23.83;58.02
56414;BME280;42318;48.452;19.526;2023-07-13T02:08:54;98010.25;;;23.81;57.80
56414;BME280;42318;48.452;19.526;2023-07-13T02:13:54;98002.56;;;23.83;58.33
56414;BME280;42318;48.452;19.526;2023-07-13T02:18:56;98001.47;;;23.84;58.12
56414;BME280;42318;48.452;19.526;2023-07-13T02:23:57;97983.41;;;23.83;59.22
56414;BME280;42318;48.452;19.526;2023-07-13T02:28:58;97991.63;;;23.83;59.01
56414;BME280;42318;48.452;19.526;2023-07-13T02:33:59;97986.44;;;23.81;58.54
56414;BME280;42318;48.452;19.526;2023-07-13T02:39:04;97988.06;;;23.83;58.92
56414;BME280;42318;48.452;19.526;2023-07-13T02:44:05;97978.25;;;23.81;58.72
56414;BME280;42318;48.452;19.526;2023-07-13T02:49:08;97995.47;;;23.82;58.85
56414;BME280;42318;48.452;19.526;2023-07-13T02:54:09;98004.50;;;23.83;58.84
56414;BME280;42318;48.452;19.526;2023-07-13T02:59:10;97994.66;;;23.81;58.69
56414;BME280;42318;48.452;19.526;2023-07-13T03:04:12;97992.72;;;23.82;58.77
56414;BME280;42318;48.452;19.526;2023-07-13T03:09:13;98021.72;;;23.83;58.45
56414;BME280;42318;48.452;19.526;2023-07-13T03:14:14;98017.34;;;23.82;58.58
56414;BME280;42318;48.452;19.526;2023-07-13T03:19:15;98011.88;;;23.82;58.71
56414;BME280;42318;48.452;19.526;2023-07-13T03:24:16;98016.53;;;23.81;58.62
56414;BME280;42318;48.452;19.526;2023-07-13T03:29:16;98014.09;;;23.80;58.73
56414;BME280;42318;48.452;19.526;2023-07-13T03:34:17;98026.66;;;23.81;58.33
56414;BME280;42318;48.452;19.526;2023-07-13T03:39:18;98035.16;;;23.79;58.28
56414;BME280;42318;48.452;19.526;2023-07-13T03:44:19;98034.34;;;23.79;58.46
56414;BME280;42318;48.452;19.526;2023-07-13T03:49:20;98031.63;;;23.79;58.46
56414;BME280;42318;48.452;19.526;2023-07-13T03:54:21;98039.81;;;23.79;58.11
56414;BME280;42318;48.452;19.526;2023-07-13T03:59:21;98045.28;;;23.79;58.39
56414;BME280;42318;48.452;19.526;2023-07-13T04:04:22;98057.06;;;23.79;58.24
56414;BME280;42318;48.452;19.526;2023-07-13T04:09:24;98042.03;;;23.77;58.20
56414;BME280;42318;48.452;19.526;2023-07-13T04:14:25;98044.47;;;23.78;58.21
56414;BME280;42318;48.452;19.526;2023-07-13T04:19:25;98034.94;;;23.76;58.30
56414;BME280;42318;48.452;19.526;2023-07-13T04:24:26;98030.28;;;23.76;58.02
56414;BME280;42318;48.452;19.526;2023-07-13T04:29:27;98033.84;;;23.77;57.96
56414;BME280;42318;48.452;19.526;2023-07-13T04:34:28;98040.13;;;23.77;57.98
56414;BME280;42318;48.452;19.526;2023-07-13T04:39:29;98025.63;;;23.77;58.03
56414;BME280;42318;48.452;19.526;2023-07-13T04:44:29;98015.25;;;23.74;58.15
56414;BME280;42318;48.452;19.526;2023-07-13T04:49:30;98022.88;;;23.77;57.90
56414;BME280;42318;48.452;19.526;2023-07-13T04:54:31;98024.00;;;23.76;58.26
56414;BME280;42318;48.452;19.526;2023-07-13T04:59:32;98033.84;;;23.77;58.22
56414;BME280;42318;48.452;19.526;2023-07-13T05:04:33;98031.09;;;23.77;58.29
56414;BME280;42318;48.452;19.526;2023-07-13T05:09:34;98037.44;;;23.72;58.13
56414;BME280;42318;48.452;19.526;2023-07-13T05:14:35;98040.41;;;23.76;58.16
56414;BME280;42318;48.452;19.526;2023-07-13T05:19:36;98035.75;;;23.76;58.16
56414;BME280;42318;48.452;19.526;2023-07-13T05:24:37;98027.03;;;23.74;58.00
56414;BME280;42318;48.452;19.526;2023-07-13T05:29:38;98039.59;;;23.75;57.78
56414;BME280;42318;48.452;19.526;2023-07-13T05:34:39;98037.44;;;23.72;58.00
56414;BME280;42318;48.452;19.526;2023-07-13T05:39:39;98044.25;;;23.75;57.87
56414;BME280;42318;48.452;19.526;2023-07-13T05:44:41;98045.06;;;23.75;57.89
56414;BME280;42318;48.452;19.526;2023-07-13T05:49:41;98043.44;;;23.74;58.28
56414;BME280;42318;48.452;19.526;2023-07-13T05:54:42;98049.72;;;23.75;57.91
56414;BME280;42318;48.452;19.526;2023-07-13T05:59:43;98075.44;;;23.74;58.21
56414;BME280;42318;48.452;19.526;2023-07-13T06:04:44;98106.34;;;23.74;58.09
56414;BME280;42318;48.452;19.526;2023-07-13T06:09:44;98134.81;;;23.73;58.06
56414;BME280;42318;48.452;19.526;2023-07-13T06:14:45;98120.09;;;23.69;58.29
56414;BME280;42318;48.452;19.526;2023-07-13T06:19:46;98135.09;;;23.72;58.22
56414;BME280;42318;48.452;19.526;2023-07-13T06:24:47;98144.94;;;23.73;58.11
56414;BME280;42318;48.452;19.526;2023-07-13T06:29:48;98140.56;;;23.72;58.06
56414;BME280;42318;48.452;19.526;2023-07-13T06:34:49;98150.41;;;23.73;58.06
56414;BME280;42318;48.452;19.526;2023-07-13T06:39:52;98155.06;;;23.72;58.21
56414;BME280;42318;48.452;19.526;2023-07-13T06:44:52;98150.41;;;23.73;58.12
56414;BME280;42318;48.452;19.526;2023-07-13T06:49:53;98152.63;;;23.71;58.10
56414;BME280;42318;48.452;19.526;2023-07-13T06:54:54;98144.69;;;23.69;58.42
56414;BME280;42318;48.452;19.526;2023-07-13T06:59:55;98141.66;;;23.71;58.38
56414;BME280;42318;48.452;19.526;2023-07-13T07:04:56;98125.25;;;23.71;58.10
56414;BME280;42318;48.452;19.526;2023-07-13T07:09:57;98108.03;;;23.70;58.11
56414;BME280;42318;48.452;19.526;2023-07-13T07:14:58;98107.22;;;23.70;58.15
56414;BME280;42318;48.452;19.526;2023-07-13T07:19:58;98108.31;;;23.69;58.42
56414;BME280;42318;48.452;19.526;2023-07-13T07:24:59;98101.75;;;23.70;58.14
56414;BME280;42318;48.452;19.526;2023-07-13T07:30:00;98100.94;;;23.69;58.12
56414;BME280;42318;48.452;19.526;2023-07-13T07:35:01;98083.72;;;23.69;58.11
56414;BME280;42318;48.452;19.526;2023-07-13T07:40:02;98039.94;;;23.69;58.66
56414;BME280;42318;48.452;19.526;2023-07-13T07:45:03;97888.19;;;23.66;58.33
56414;BME280;42318;48.452;19.526;2023-07-13T07:50:05;97760.75;;;23.65;58.08
56414;BME280;42318;48.452;19.526;2023-07-13T07:55:06;97832.38;;;23.67;58.23
56414;BME280;42318;48.452;19.526;2023-07-13T08:00:07;97815.97;;;23.67;58.46
56414;BME280;42318;48.452;19.526;2023-07-13T08:05:09;97830.97;;;23.70;58.16
56414;BME280;42318;48.452;19.526;2023-07-13T08:10:09;97833.69;;;23.70;57.89
56414;BME280;42318;48.452;19.526;2023-07-13T08:15:13;97855.59;;;23.70;57.98
56414;BME280;42318;48.452;19.526;2023-07-13T08:20:15;97865.13;;;23.72;58.22
56414;BME280;42318;48.452;19.526;2023-07-13T08:25:16;97905.34;;;23.72;58.20
56414;BME280;42318;48.452;19.526;2023-07-13T08:30:16;97911.31;;;23.74;58.07
56414;BME280;42318;48.452;19.526;2023-07-13T08:35:17;97923.06;;;23.74;58.20
56414;BME280;42318;48.452;19.526;2023-07-13T08:40:20;97934.03;;;23.74;58.09
56414;BME280;42318;48.452;19.526;2023-07-13T08:45:37;97955.91;;;23.74;58.35
56414;BME280;42318;48.452;19.526;2023-07-13T08:50:58;97971.22;;;23.75;58.28
56414;BME280;42318;48.452;19.526;2023-07-13T08:56:01;97990.34;;;23.75;57.98
56414;BME280;42318;48.452;19.526;2023-07-13T09:01:19;98002.09;;;23.76;57.92
56414;BME280;42318;48.452;19.526;2023-07-13T09:06:28;98008.41;;;23.76;58.37
56414;BME280;42318;48.452;19.526;2023-07-13T09:11:59;98010.84;;;23.78;58.23
56414;BME280;42318;48.452;19.526;2023-07-13T09:17:08;98012.75;;;23.77;58.13
56414;BME280;42318;48.452;19.526;2023-07-13T09:22:15;98017.13;;;23.78;58.03
56414;BME280;42318;48.452;19.526;2023-07-13T09:27:27;98024.28;;;23.74;58.31
56414;BME280;42318;48.452;19.526;2023-07-13T09:32:30;98031.91;;;23.77;58.31
56414;BME280;42318;48.452;19.526;2023-07-13T09:37:32;98039.00;;;23.78;58.33
56414;BME280;42318;48.452;19.526;2023-07-13T09:42:33;98024.00;;;23.76;58.12
56414;BME280;42318;48.452;19.526;2023-07-13T09:47:38;98030.00;;;23.78;58.31
56414;BME280;42318;48.452;19.526;2023-07-13T09:52:49;98026.44;;;23.77;57.99
56414;BME280;42318;48.452;19.526;2023-07-13T09:57:50;98027.25;;;23.78;58.37
56414;BME280;42318;48.452;19.526;2023-07-13T10:08:16;98038.19;;;23.78;58.03
56414;BME280;42318;48.452;19.526;2023-07-13T10:13:37;98039.00;;;23.78;58.30
56414;BME280;42318;48.452;19.526;2023-07-13T10:18:43;98034.34;;;23.79;58.01
56414;BME280;42318;48.452;19.526;2023-07-13T10:23:55;98040.13;;;23.77;58.04
56414;BME280;42318;48.452;19.526;2023-07-13T10:29:02;98018.53;;;23.76;58.44
56414;BME280;42318;48.452;19.526;2023-07-13T10:34:04;98005.94;;;23.75;58.25
56414;BME280;42318;48.452;19.526;2023-07-13T10:39:06;98001.53;;;23.79;57.84
56414;BME280;42318;48.452;19.526;2023-07-13T10:44:17;97998.50;;;23.80;58.16
56414;BME280;42318;48.452;19.526;2023-07-13T10:49:19;97990.00;;;23.82;58.09
56414;BME280;42318;48.452;19.526;2023-07-13T10:54:27;97998.19;;;23.82;57.83
56414;BME280;42318;48.452;19.526;2023-07-13T10:59:28;97993.25;;;23.84;58.05
56414;BME280;42318;48.452;19.526;2023-07-13T11:04:40;97998.47;;;23.86;58.21
56414;BME280;42318;48.452;19.526;2023-07-13T11:09:42;97987.78;;;23.84;57.84
56414;BME280;42318;48.452;19.526;2023-07-13T11:20:10;97993.81;;;23.86;58.26
56414;BME280;42318;48.452;19.526;2023-07-13T11:35:26;97983.38;;;23.88;57.86
56414;BME280;42318;48.452;19.526;2023-07-13T11:40:29;97973.84;;;23.86;58.10
56414;BME280;42318;48.452;19.526;2023-07-13T11:45:30;97991.28;;;23.90;57.92
56414;BME280;42318;48.452;19.526;2023-07-13T11:50:31;97970.22;;;23.90;57.93
56414;BME280;42318;48.452;19.526;2023-07-13T11:55:38;97985.00;;;23.89;57.79
56414;BME280;42318;48.452;19.526;2023-07-13T12:00:38;97979.25;;;23.91;57.69
56414;BME280;42318;48.452;19.526;2023-07-13T12:05:55;97993.50;;;23.88;57.79
56414;BME280;42318;48.452;19.526;2023-07-13T12:11:05;97997.59;;;23.90;57.61
56414;BME280;42318;48.452;19.526;2023-07-13T12:16:15;98003.06;;;23.90;57.88
56414;BME280;42318;48.452;19.526;2023-07-13T12:21:18;98011.78;;;23.92;57.79
56414;BME280;42318;48.452;19.526;2023-07-13T12:26:19;98005.50;;;23.92;57.85
56414;BME280;42318;48.452;19.526;2023-07-13T12:36:36;98010.69;;;23.93;57.62
56414;BME280;42318;48.452;19.526;2023-07-13T12:41:37;98001.38;;;23.94;57.55
56414;BME280;42318;48.452;19.526;2023-07-13T12:46:38;97992.34;;;23.94;57.57
56414;BME280;42318;48.452;19.526;2023-07-13T12:51:39;97962.53;;;23.92;57.84
56414;BME280;42318;48.452;19.526;2023-07-13T13:02:32;97963.06;;;23.94;57.84
56414;BME280;42318;48.452;19.526;2023-07-13T13:07:35;97957.59;;;23.94;57.79
56414;BME280;42318;48.452;19.526;2023-07-13T13:12:36;97961.66;;;23.97;57.69
56414;BME280;42318;48.452;19.526;2023-07-13T13:17:38;97965.19;;;23.97;57.75
56414;BME280;42318;48.452;19.526;2023-07-13T13:22:39;97973.94;;;23.99;57.74
56414;BME280;42318;48.452;19.526;2023-07-13T13:27:43;97979.41;;;23.99;57.79
56414;BME280;42318;48.452;19.526;2023-07-13T13:32:47;97982.13;;;23.99;57.43
56414;BME280;42318;48.452;19.526;2023-07-13T13:37:48;97988.44;;;24.00;57.46
56414;BME280;42318;48.452;19.526;2023-07-13T13:42:50;97978.28;;;24.00;57.43
56414;BME280;42318;48.452;19.526;2023-07-13T13:47:56;97981.84;;;24.01;57.58
56414;BME280;42318;48.452;19.526;2023-07-13T13:52:57;97986.50;;;24.00;57.67
56414;BME280;42318;48.452;19.526;2023-07-13T13:57:57;97993.59;;;24.01;57.53
56414;BME280;42318;48.452;19.526;2023-07-13T14:02:58;97992.78;;;24.01;57.73
56414;BME280;42318;48.452;19.526;2023-07-13T14:08:00;97992.78;;;24.01;57.81
56414;BME280;42318;48.452;19.526;2023-07-13T14:13:01;97996.03;;;24.03;57.68
56414;BME280;42318;48.452;19.526;2023-07-13T14:18:01;98014.91;;;24.04;57.58
56414;BME280;42318;48.452;19.526;2023-07-13T14:23:02;98026.66;;;24.05;57.63
56414;BME280;42318;48.452;19.526;2023-07-13T14:28:22;97997.38;;;24.05;57.50
56414;BME280;42318;48.452;19.526;2023-07-13T14:33:23;98020.38;;;24.04;57.58
56414;BME280;42318;48.452;19.526;2023-07-13T14:38:25;98028.28;;;24.06;57.57
56414;BME280;42318;48.452;19.526;2023-07-13T14:43:26;98040.06;;;24.06;57.39
56414;BME280;42318;48.452;19.526;2023-07-13T14:48:30;98049.59;;;24.09;57.34
56414;BME280;42318;48.452;19.526;2023-07-13T14:53:31;98080.28;;;24.06;57.64
56414;BME280;42318;48.452;19.526;2023-07-13T14:58:31;98105.16;;;24.09;57.40
56414;BME280;42318;48.452;19.526;2023-07-13T15:03:32;98116.41;;;24.08;57.67
56414;BME280;42318;48.452;19.526;2023-07-13T15:08:33;98125.41;;;24.08;57.67
56414;BME280;42318;48.452;19.526;2023-07-13T15:13:35;98119.13;;;24.08;57.59
56414;BME280;42318;48.452;19.526;2023-07-13T15:18:36;98107.38;;;24.07;57.76
56414;BME280;42318;48.452;19.526;2023-07-13T15:23:40;98089.31;;;24.06;57.60
56414;BME280;42318;48.452;19.526;2023-07-13T15:28:42;98072.09;;;24.06;57.62
56414;BME280;42318;48.452;19.526;2023-07-13T15:33:43;98079.47;;;24.05;57.70
56414;BME280;42318;48.452;19.526;2023-07-13T15:38:46;98075.13;;;24.04;57.44
56414;BME280;42318;48.452;19.526;2023-07-13T15:43:49;98062.25;;;24.05;57.57
56414;BME280;42318;48.452;19.526;2023-07-13T15:48:52;98061.94;;;24.06;57.46
56414;BME280;42318;48.452;19.526;2023-07-13T15:53:55;98065.78;;;24.05;57.47
56414;BME280;42318;48.452;19.526;2023-07-13T15:58:57;98065.28;;;24.03;57.54
56414;BME280;42318;48.452;19.526;2023-07-13T16:03:58;98073.72;;;24.07;57.71
56414;BME280;42318;48.452;19.526;2023-07-13T16:09:00;98084.13;;;24.05;57.23
56414;BME280;42318;48.452;19.526;2023-07-13T16:14:02;98082.22;;;24.05;57.30
56414;BME280;42318;48.452;19.526;2023-07-13T16:19:05;98090.44;;;24.05;57.41
56414;BME280;42318;48.452;19.526;2023-07-13T16:24:15;98070.75;;;24.03;57.57
56414;BME280;42318;48.452;19.526;2023-07-13T16:34:18;98076.22;;;24.03;57.44
56414;BME280;42318;48.452;19.526;2023-07-13T16:39:19;98082.22;;;24.05;57.43
56414;BME280;42318;48.452;19.526;2023-07-13T16:44:22;98104.41;;;24.04;57.58
56414;BME280;42318;48.452;19.526;2023-07-13T16:49:29;98109.59;;;24.05;57.52
56414;BME280;42318;48.452;19.526;2023-07-13T16:54:35;98098.63;;;24.05;57.64
56414;BME280;42318;48.452;19.526;2023-07-13T16:59:36;98101.66;;;24.04;57.51
56414;BME280;42318;48.452;19.526;2023-07-13T17:04:37;98102.47;;;24.04;57.55
56414;BME280;42318;48.452;19.526;2023-07-13T17:09:38;98114.53;;;24.03;57.70
56414;BME280;42318;48.452;19.526;2023-07-13T17:14:44;98120.00;;;24.03;57.50
56414;BME280;42318;48.452;19.526;2023-07-13T17:19:45;98121.13;;;24.02;57.77
56414;BME280;42318;48.452;19.526;2023-07-13T17:24:47;98132.88;;;24.03;57.45
56414;BME280;42318;48.452;19.526;2023-07-13T17:29:49;98132.06;;;24.02;57.72
56414;BME280;42318;48.452;19.526;2023-07-13T17:34:50;98135.91;;;24.01;57.67
56414;BME280;42318;48.452;19.526;2023-07-13T17:39:51;98146.84;;;24.01;57.59
56414;BME280;42318;48.452;19.526;2023-07-13T17:44:52;98140.84;;;23.99;57.55
56414;BME280;42318;48.452;19.526;2023-07-13T17:49:54;98141.09;;;24.03;57.88
56414;BME280;42318;48.452;19.526;2023-07-13T17:54:55;98148.47;;;24.02;57.73
56414;BME280;42318;48.452;19.526;2023-07-13T17:59:56;98158.63;;;24.02;58.00
56414;BME280;42318;48.452;19.526;2023-07-13T18:04:57;98149.06;;;23.99;57.83
56414;BME280;42318;48.452;19.526;2023-07-13T18:10:00;98167.63;;;24.02;57.75
56414;BME280;42318;48.452;19.526;2023-07-13T18:15:01;98166.53;;;24.03;57.79
56414;BME280;42318;48.452;19.526;2023-07-13T18:20:03;98177.47;;;24.03;57.92
56414;BME280;42318;48.452;19.526;2023-07-13T18:25:15;98176.38;;;24.04;57.87
56414;BME280;42318;48.452;19.526;2023-07-13T18:30:19;98179.41;;;24.03;57.88
56414;BME280;42318;48.452;19.526;2023-07-13T18:35:28;98190.06;;;24.04;57.60
56414;BME280;42318;48.452;19.526;2023-07-13T18:40:30;98191.41;;;24.07;57.74
56414;BME280;42318;48.452;19.526;2023-07-13T18:45:31;98201.00;;;24.04;56.87
56414;BME280;42318;48.452;19.526;2023-07-13T18:50:33;98190.44;;;23.93;55.98
56414;BME280;42318;48.452;19.526;2023-07-13T18:55:36;98197.63;;;23.84;55.94
56414;BME280;42318;48.452;19.526;2023-07-13T19:00:38;98201.47;;;23.83;56.22
56414;BME280;42318;48.452;19.526;2023-07-13T19:05:39;98201.75;;;23.81;56.00
56414;BME280;42318;48.452;19.526;2023-07-13T19:10:42;98207.81;;;23.78;56.03
56414;BME280;42318;48.452;19.526;2023-07-13T19:15:44;98202.91;;;23.75;55.82
56414;BME280;42318;48.452;19.526;2023-07-13T19:20:46;98211.16;;;23.70;55.91
56414;BME280;42318;48.452;19.526;2023-07-13T19:25:48;98199.19;;;23.61;56.26
56414;BME280;42318;48.452;19.526;2023-07-13T19:30:51;98213.41;;;23.63;56.12
56414;BME280;42318;48.452;19.526;2023-07-13T19:35:52;98209.03;;;23.62;56.29
56414;BME280;42318;48.452;19.526;2023-07-13T19:40:53;98201.94;;;23.61;56.45
56414;BME280;42318;48.452;19.526;2023-07-13T19:45:54;98200.31;;;23.60;56.45
56414;BME280;42318;48.452;19.526;2023-07-13T19:50:55;98214.81;;;23.60;56.63
56414;BME280;42318;48.452;19.526;2023-07-13T19:55:56;98229.81;;;23.63;56.81
56414;BME280;42318;48.452;19.526;2023-07-13T20:00:57;98206.59;;;23.60;56.65
56414;BME280;42318;48.452;19.526;2023-07-13T20:05:58;98215.56;;;23.66;56.77
56414;BME280;42318;48.452;19.526;2023-07-13T20:11:00;98226.75;;;23.69;56.66
56414;BME280;42318;48.452;19.526;2023-07-13T20:16:00;98226.19;;;23.72;56.57
56414;BME280;42318;48.452;19.526;2023-07-13T20:21:01;98218.25;;;23.71;56.36
56414;BME280;42318;48.452;19.526;2023-07-13T20:26:02;98236.34;;;23.67;56.44
56414;BME280;42318;48.452;19.526;2023-07-13T20:31:04;98242.97;;;23.61;56.47
56414;BME280;42318;48.452;19.526;2023-07-13T20:36:11;98248.16;;;23.62;56.62
56414;BME280;42318;48.452;19.526;2023-07-13T20:41:12;98258.31;;;23.57;56.76
56414;BME280;42318;48.452;19.526;2023-07-13T20:46:15;98284.56;;;23.58;56.93
56414;BME280;42318;48.452;19.526;2023-07-13T20:51:17;98268.69;;;23.55;57.01
56414;BME280;42318;48.452;19.526;2023-07-13T20:56:21;98279.63;;;23.60;56.50
56414;BME280;42318;48.452;19.526;2023-07-13T21:01:25;98282.63;;;23.58;56.57
56414;BME280;42318;48.452;19.526;2023-07-13T21:06:28;98280.19;;;23.52;56.54
56414;BME280;42318;48.452;19.526;2023-07-13T21:11:30;98289.50;;;23.50;56.74
56414;BME280;42318;48.452;19.526;2023-07-13T21:16:31;98302.06;;;23.52;56.85
56414;BME280;42318;48.452;19.526;2023-07-13T21:21:31;98292.53;;;23.49;57.00
56414;BME280;42318;48.452;19.526;2023-07-13T21:26:32;98292.00;;;23.47;57.06
56414;BME280;42318;48.452;19.526;2023-07-13T21:31:34;98296.66;;;23.41;57.33
56414;BME280;42318;48.452;19.526;2023-07-13T21:36:36;98285.72;;;23.41;57.42
56414;BME280;42318;48.452;19.526;2023-07-13T21:41:36;98280.81;;;23.43;57.39
56414;BME280;42318;48.452;19.526;2023-07-13T21:46:37;98275.88;;;23.45;57.18
56414;BME280;42318;48.452;19.526;2023-07-13T21:51:38;98267.13;;;23.43;57.14
56414;BME280;42318;48.452;19.526;2023-07-13T21:56:39;98271.22;;;23.46;57.13
56414;BME280;42318;48.452;19.526;2023-07-13T22:01:40;98272.59;;;23.43;56.89
56414;BME280;42318;48.452;19.526;2023-07-13T22:06:40;98276.97;;;23.39;57.16
56414;BME280;42318;48.452;19.526;2023-07-13T22:11:41;98283.25;;;23.40;57.52
56414;BME280;42318;48.452;19.526;2023-07-13T22:16:42;98290.63;;;23.39;56.94
56414;BME280;42318;48.452;19.526;2023-07-13T22:21:44;98298.03;;;23.39;57.14
56414;BME280;42318;48.452;19.526;2023-07-13T22:26:44;98302.69;;;23.38;57.13
56414;BME280;42318;48.452;19.526;2023-07-13T22:31:46;98304.31;;;23.39;56.92
56414;BME280;42318;48.452;19.526;2023-07-13T22:36:47;98307.03;;;23.39;57.07
56414;BME280;42318;48.452;19.526;2023-07-13T22:41:49;98311.41;;;23.40;56.99
56414;BME280;42318;48.452;19.526;2023-07-13T22:46:51;98309.78;;;23.39;57.04
56414;BME280;42318;48.452;19.526;2023-07-13T22:51:55;98320.19;;;23.42;57.13
56414;BME280;42318;48.452;19.526;2023-07-13T22:56:56;98310.88;;;23.43;57.21
56414;BME280;42318;48.452;19.526;2023-07-13T23:01:57;98313.88;;;23.42;57.15
56414;BME280;42318;48.452;19.526;2023-07-13T23:06:59;98316.06;;;23.45;57.03
56414;BME280;42318;48.452;19.526;2023-07-13T23:12:01;98316.06;;;23.45;56.85
56414;BME280;42318;48.452;19.526;2023-07-13T23:17:04;98316.06;;;23.45;56.72
56414;BME280;42318;48.452;19.526;2023-07-13T23:22:24;98310.59;;;23.45;56.71
56414;BME280;42318;48.452;19.526;2023-07-13T23:27:26;98315.78;;;23.46;56.63
56414;BME280;42318;48.452;19.526;2023-07-13T23:32:27;98317.69;;;23.46;56.94
56414;BME280;42318;48.452;19.526;2023-07-13T23:37:27;98317.41;;;23.47;57.04
56414;BME280;42318;48.452;19.526;2023-07-13T23:42:29;98317.41;;;23.47;56.82
56414;BME280;42318;48.452;19.526;2023-07-13T23:47:30;98318.78;;;23.45;56.82
56414;BME280;42318;48.452;19.526;2023-07-13T23:52:30;98327.53;;;23.47;56.87
56414;BME280;42318;48.452;19.526;2023-07-13T23:57:31;98333.28;;;23.45;56.61
